Pagrindinis puslapis
METAR-TAF:

METAR-TAF

Oro uostai :

Manisalesas, Kolumbija

platuma: 05-01-48N, ilguma: 075-27-50W, Aukštis: 2063 m

Dabartinis oras

Ataskaita buvo paskelbta 28 minutes, ne 13:00 UTC
Vėjas 3 kt iš Pietryčių
Temperatūra 17°C
Drėgmė 72%
Slėgis 1028 hPa
Matomumas: 7000 m
Su prošvaistėmis ne aukštis 1500 ft
Išsisklaidę debesys ne aukštis 9000 ft
Rūkas kaimynystėje

METAR: SKMZ 281300Z 13003KT 7000 VCFG BKN015 SCT090 17/12 A3037 RMK VCFG/W

Laikas: 08:28 (13:28 UTC)


TAF: trūkstamas

Orai ataskaitas ir orų prognozės (METAR, TAF).

turimą stotys yra geltonos ir raudonos taškus žemėlapyje.

Perkelti pele per norėdami pamatyti stoties vardą.

Tada spustelėkite, norėdami matyti oro stebėjimo ir prognozės.

Norėdami pakeisti žemėlapį: spustelėkite ant žalios mygtukų su juodo kryžiaus žemyn,; žalią mygtuką su brūkšneliu, jei norite nutolinti; arba žalių rodyklių gretimoms žemėlapius.


METAR-TAF: